メインページ
METAR-TAF:

METAR-TAF

空港 :

チャーチル, マニトバ州, カナダ

緯度: 58-44N, 経度: 094-04W, 海抜: 28m

現時点の気象観測

当レポートは1時間0分前の23:00(UTC)に作成
西/南西の風 7kt、南西から西/北西の間で変化する
気温 21°C
湿度 40%
気圧 1015 hPa
視程: 24.1km
高度4000ftの雲はほとんどない

METAR: CYYQ 162300Z 24007KT 230V290 15SM FEW040 21/07 A2996 RMK CU1 SLP149 DENSITY ALT 800FT

時間: 19:00 (00:00 UTC)

予報

当レポートは22分前の23:38(UTC)に作成
予報は17日の 00時(UTC)から 17日の 24時(UTC)まで有効
西/南西の風 8kt
視程: 10km
高度4000ftの雲はほとんどない
17日の 0800時(UTC)から
西の風 12kt
視程: 10km
高度6000ftの雲はほとんどない
高度28000ftの雲は散在している
17日の 1600時(UTC)から
南/南西の風 10kt
視程: 10km
高度12000ftの千切れ雲あり
高度24000ftの千切れ雲あり
17日の 2200時(UTC)から
南/南西の風 15kt
視程: 10km
高度8000ftの千切れ雲あり

TAF: CYYQ 162338Z 1700/1724 24008KT P6SM FEW040 FM170800 26012KT P6SM FEW060 SCT280 FM171600 20010KT P6SM BKN120 BKN240 FM172200 20015KT P6SM BKN080 RMK NXT FCST BY 170600Z

4,000以上の空港の気象観測と天気予報(METAR報とTAF報)

利用可能な観測所は地図上に黄色い丸と赤い丸で示す。

丸の上にカーソルを重ねると観測所名を参照できる。

次にクリックすると気象観測と天気予報を参照できる。

マップの切り替え:黒色「×」印の緑ボタンをクリックして拡大、「-」印の緑ボタンをクリックして縮小、緑色の三角印をクリックして隣りの地図に切り替え


METAR-TAF: